createdAt,value
2023-01-29T00:00:13.000Z,-1.84
2023-01-29T00:01:13.000Z,-1.82
2023-01-29T00:02:13.000Z,-1.85
2023-01-29T00:03:13.000Z,-1.82
2023-01-29T00:04:13.000Z,-1.84
2023-01-29T00:05:13.000Z,-1.85
2023-01-29T00:06:13.000Z,-1.84
2023-01-29T00:07:13.000Z,-1.87
2023-01-29T00:08:13.000Z,-1.88
2023-01-29T00:09:13.000Z,-1.90
2023-01-29T00:10:13.000Z,-1.88
2023-01-29T00:11:13.000Z,-1.92
2023-01-29T00:12:13.000Z,-1.92
2023-01-29T00:13:14.000Z,-1.95
2023-01-29T00:14:14.000Z,-1.99
2023-01-29T00:15:14.000Z,-2.02
2023-01-29T00:16:14.000Z,-2.02
2023-01-29T00:17:14.000Z,-2.03
2023-01-29T00:18:14.000Z,-2.05
2023-01-29T00:19:14.000Z,-2.06
2023-01-29T00:20:14.000Z,-2.10
2023-01-29T00:21:14.000Z,-2.14
2023-01-29T00:22:14.000Z,-2.10
2023-01-29T00:23:14.000Z,-2.13
2023-01-29T00:24:14.000Z,-2.13
2023-01-29T00:25:14.000Z,-2.13
2023-01-29T00:26:14.000Z,-2.11
2023-01-29T00:27:14.000Z,-2.17
2023-01-29T00:28:14.000Z,-2.13
2023-01-29T00:29:14.000Z,-2.16
2023-01-29T00:30:14.000Z,-2.17
2023-01-29T00:31:14.000Z,-2.16
2023-01-29T00:32:14.000Z,-2.16
2023-01-29T00:33:14.000Z,-2.18
2023-01-29T00:34:14.000Z,-2.18
2023-01-29T00:35:14.000Z,-2.17
2023-01-29T00:36:14.000Z,-2.16
2023-01-29T00:37:14.000Z,-2.17
2023-01-29T00:38:15.000Z,-2.17
2023-01-29T00:39:15.000Z,-2.17
2023-01-29T00:40:15.000Z,-2.18
2023-01-29T00:41:15.000Z,-2.18
2023-01-29T00:42:15.000Z,-2.18
2023-01-29T00:43:15.000Z,-2.20
2023-01-29T00:44:15.000Z,-2.20
2023-01-29T00:45:15.000Z,-2.20
2023-01-29T00:46:15.000Z,-2.20
2023-01-29T00:47:15.000Z,-2.20
2023-01-29T00:48:15.000Z,-2.18
2023-01-29T00:49:15.000Z,-2.20
2023-01-29T00:50:15.000Z,-2.21
2023-01-29T00:51:15.000Z,-2.23
2023-01-29T00:52:15.000Z,-2.26
2023-01-29T00:53:15.000Z,-2.32
2023-01-29T00:54:15.000Z,-2.32
2023-01-29T00:55:15.000Z,-2.36
2023-01-29T00:56:15.000Z,-2.38
2023-01-29T00:57:15.000Z,-2.33
2023-01-29T00:58:15.000Z,-2.35
2023-01-29T00:59:15.000Z,-2.38
2023-01-29T01:00:15.000Z,-2.39
2023-01-29T01:01:15.000Z,-2.42
2023-01-29T01:02:15.000Z,-2.39
2023-01-29T01:03:15.000Z,-2.40
2023-01-29T01:04:16.000Z,-2.40
2023-01-29T01:05:16.000Z,-2.43
2023-01-29T01:06:16.000Z,-2.42
2023-01-29T01:07:16.000Z,-2.42
2023-01-29T01:08:16.000Z,-2.42
2023-01-29T01:09:16.000Z,-2.42
2023-01-29T01:10:16.000Z,-2.39
2023-01-29T01:11:16.000Z,-2.40
2023-01-29T01:12:16.000Z,-2.39
2023-01-29T01:13:16.000Z,-2.43
2023-01-29T01:14:16.000Z,-2.47
2023-01-29T01:15:16.000Z,-2.47
2023-01-29T01:16:16.000Z,-2.47
2023-01-29T01:17:16.000Z,-2.51
2023-01-29T01:18:16.000Z,-2.51
2023-01-29T01:19:16.000Z,-2.56
2023-01-29T01:20:16.000Z,-2.50
2023-01-29T01:21:16.000Z,-2.58
2023-01-29T01:22:16.000Z,-2.60
2023-01-29T01:23:16.000Z,-2.57
2023-01-29T01:24:16.000Z,-2.58
2023-01-29T01:25:16.000Z,-2.60
2023-01-29T01:26:16.000Z,-2.61
2023-01-29T01:27:17.000Z,-2.61
2023-01-29T01:28:17.000Z,-2.61
2023-01-29T01:29:17.000Z,-2.63
2023-01-29T01:30:17.000Z,-2.61
2023-01-29T01:31:17.000Z,-2.61
2023-01-29T01:32:17.000Z,-2.58
2023-01-29T01:33:17.000Z,-2.56
2023-01-29T01:34:17.000Z,-2.57
2023-01-29T01:35:17.000Z,-2.56
2023-01-29T01:36:17.000Z,-2.53
2023-01-29T01:37:17.000Z,-2.54
2023-01-29T01:38:17.000Z,-2.56
2023-01-29T01:39:17.000Z,-2.53
2023-01-29T01:40:17.000Z,-2.54
2023-01-29T01:41:17.000Z,-2.54
2023-01-29T01:42:17.000Z,-2.51
2023-01-29T01:43:17.000Z,-2.53
2023-01-29T01:44:17.000Z,-2.54
2023-01-29T01:45:17.000Z,-2.56
2023-01-29T01:46:17.000Z,-2.58
2023-01-29T01:47:17.000Z,-2.60
2023-01-29T01:48:17.000Z,-2.58
2023-01-29T01:49:17.000Z,-2.56
2023-01-29T01:50:17.000Z,-2.61
2023-01-29T01:51:18.000Z,-2.63
2023-01-29T01:52:18.000Z,-2.63
2023-01-29T01:53:18.000Z,-2.66
2023-01-29T01:54:18.000Z,-2.61
2023-01-29T01:55:18.000Z,-2.66
2023-01-29T01:56:18.000Z,-2.63
2023-01-29T01:57:18.000Z,-2.68
2023-01-29T01:58:18.000Z,-2.71
2023-01-29T01:59:18.000Z,-2.71
2023-01-29T02:00:18.000Z,-2.72
2023-01-29T02:01:18.000Z,-2.66
2023-01-29T02:02:18.000Z,-2.69
2023-01-29T02:03:18.000Z,-2.69
2023-01-29T02:04:18.000Z,-2.72
2023-01-29T02:05:18.000Z,-2.71
2023-01-29T02:06:18.000Z,-2.71
2023-01-29T02:07:18.000Z,-2.72
2023-01-29T02:08:18.000Z,-2.74
2023-01-29T02:09:18.000Z,-2.69
2023-01-29T02:10:18.000Z,-2.72
2023-01-29T02:11:18.000Z,-2.69
2023-01-29T02:12:18.000Z,-2.69
2023-01-29T02:13:19.000Z,-2.74
2023-01-29T02:14:19.000Z,-2.69
2023-01-29T02:15:19.000Z,-2.74
2023-01-29T02:16:19.000Z,-2.72
2023-01-29T02:17:19.000Z,-2.71
2023-01-29T02:18:19.000Z,-2.72
2023-01-29T02:19:19.000Z,-2.75
2023-01-29T02:20:19.000Z,-2.74
2023-01-29T02:21:19.000Z,-2.74
2023-01-29T02:22:19.000Z,-2.75
2023-01-29T02:23:19.000Z,-2.72
2023-01-29T02:24:19.000Z,-2.75
2023-01-29T02:25:19.000Z,-2.74
2023-01-29T02:26:19.000Z,-2.75
2023-01-29T02:27:19.000Z,-2.76
2023-01-29T02:28:19.000Z,-2.78
2023-01-29T02:29:19.000Z,-2.79
2023-01-29T02:30:19.000Z,-2.76
2023-01-29T02:31:19.000Z,-2.85
2023-01-29T02:32:19.000Z,-2.76
2023-01-29T02:33:19.000Z,-2.81
2023-01-29T02:34:20.000Z,-2.79
2023-01-29T02:35:20.000Z,-2.78
2023-01-29T02:36:20.000Z,-2.82
2023-01-29T02:37:20.000Z,-2.82
2023-01-29T02:38:20.000Z,-2.79
2023-01-29T02:39:20.000Z,-2.87
2023-01-29T02:40:20.000Z,-2.89
2023-01-29T02:41:20.000Z,-2.89
2023-01-29T02:42:20.000Z,-2.86
2023-01-29T02:43:20.000Z,-2.89
2023-01-29T02:44:20.000Z,-2.92
2023-01-29T02:45:20.000Z,-2.87
2023-01-29T02:46:20.000Z,-2.93
2023-01-29T02:47:20.000Z,-2.90
2023-01-29T02:48:20.000Z,-2.92
2023-01-29T02:49:20.000Z,-2.92
2023-01-29T02:50:20.000Z,-2.90
2023-01-29T02:51:20.000Z,-2.93
2023-01-29T02:52:20.000Z,-2.93
2023-01-29T02:53:20.000Z,-2.94
2023-01-29T02:54:21.000Z,-2.96
2023-01-29T02:55:21.000Z,-2.97
2023-01-29T02:56:21.000Z,-2.99
2023-01-29T02:57:21.000Z,-2.99
2023-01-29T02:58:21.000Z,-2.99
2023-01-29T02:59:21.000Z,-2.96
2023-01-29T03:00:21.000Z,-3.02
2023-01-29T03:01:21.000Z,-2.97
2023-01-29T03:02:21.000Z,-2.97
2023-01-29T03:03:21.000Z,-3.00
2023-01-29T03:04:21.000Z,-3.05
2023-01-29T03:05:21.000Z,-3.05
2023-01-29T03:06:21.000Z,-3.05
2023-01-29T03:07:21.000Z,-3.05
2023-01-29T03:08:21.000Z,-3.04
2023-01-29T03:09:21.000Z,-3.04
2023-01-29T03:10:21.000Z,-3.02
2023-01-29T03:11:21.000Z,-3.05
2023-01-29T03:12:21.000Z,-3.02
2023-01-29T03:13:22.000Z,-3.00
2023-01-29T03:14:22.000Z,-3.00
2023-01-29T03:15:22.000Z,-2.97
2023-01-29T03:16:22.000Z,-2.97
2023-01-29T03:17:22.000Z,-2.96
2023-01-29T03:18:22.000Z,-2.96
2023-01-29T03:19:22.000Z,-2.99
2023-01-29T03:20:22.000Z,-2.97
2023-01-29T03:21:22.000Z,-2.93
2023-01-29T03:22:22.000Z,-2.96
2023-01-29T03:23:22.000Z,-2.94
2023-01-29T03:24:22.000Z,-2.97
2023-01-29T03:25:22.000Z,-2.99
2023-01-29T03:26:22.000Z,-2.99
2023-01-29T03:27:22.000Z,-3.02
2023-01-29T03:28:22.000Z,-3.00
2023-01-29T03:29:22.000Z,-3.04
2023-01-29T03:30:22.000Z,-3.00
2023-01-29T03:31:22.000Z,-3.02
2023-01-29T03:32:23.000Z,-3.02
2023-01-29T03:33:31.000Z,-2.96
2023-01-29T03:34:23.000Z,-2.99
2023-01-29T03:35:23.000Z,-3.05
2023-01-29T03:36:23.000Z,-3.05
2023-01-29T03:37:23.000Z,-2.99
2023-01-29T03:38:23.000Z,-3.00
2023-01-29T03:39:23.000Z,-3.04
2023-01-29T03:40:23.000Z,-3.02
2023-01-29T03:41:23.000Z,-3.00
2023-01-29T03:42:23.000Z,-3.00
2023-01-29T03:43:23.000Z,-3.02
2023-01-29T03:44:23.000Z,-3.00
2023-01-29T03:45:23.000Z,-2.99
2023-01-29T03:46:23.000Z,-3.05
2023-01-29T03:47:23.000Z,-3.04
2023-01-29T03:48:23.000Z,-3.05
2023-01-29T03:49:23.000Z,-3.05
2023-01-29T03:50:23.000Z,-3.00
2023-01-29T03:51:23.000Z,-3.00
2023-01-29T03:52:24.000Z,-3.00
2023-01-29T03:53:24.000Z,-3.04
2023-01-29T03:54:24.000Z,-3.04
2023-01-29T03:55:24.000Z,-3.05
2023-01-29T03:56:24.000Z,-3.04
2023-01-29T03:57:24.000Z,-3.00
2023-01-29T03:58:24.000Z,-3.04
2023-01-29T03:59:24.000Z,-3.00
2023-01-29T04:00:24.000Z,-3.07
2023-01-29T04:01:24.000Z,-2.97
2023-01-29T04:02:24.000Z,-3.00
2023-01-29T04:03:24.000Z,-2.99
2023-01-29T04:04:24.000Z,-2.97
2023-01-29T04:05:24.000Z,-2.97
2023-01-29T04:06:24.000Z,-3.02
2023-01-29T04:07:24.000Z,-2.96
2023-01-29T04:08:24.000Z,-2.94
2023-01-29T04:09:24.000Z,-2.96
2023-01-29T04:10:25.000Z,-2.96
2023-01-29T04:11:25.000Z,-2.96
2023-01-29T04:12:25.000Z,-2.92
2023-01-29T04:13:25.000Z,-2.93
2023-01-29T04:14:25.000Z,-2.89
2023-01-29T04:15:25.000Z,-2.89
2023-01-29T04:16:25.000Z,-2.93
2023-01-29T04:17:25.000Z,-2.92
2023-01-29T04:18:25.000Z,-2.90
2023-01-29T04:19:25.000Z,-2.90
2023-01-29T04:20:25.000Z,-2.94
2023-01-29T04:21:25.000Z,-2.94
2023-01-29T04:22:25.000Z,-2.94
2023-01-29T04:23:25.000Z,-2.92
2023-01-29T04:24:25.000Z,-2.94
2023-01-29T04:25:25.000Z,-2.93
2023-01-29T04:26:25.000Z,-2.96
2023-01-29T04:27:25.000Z,-2.94
2023-01-29T04:28:26.000Z,-2.94
2023-01-29T04:29:26.000Z,-2.94
2023-01-29T04:30:26.000Z,-2.92
2023-01-29T04:31:26.000Z,-2.93
2023-01-29T04:32:26.000Z,-2.94
2023-01-29T04:33:26.000Z,-2.96
2023-01-29T04:34:26.000Z,-2.96
2023-01-29T04:35:26.000Z,-2.92
2023-01-29T04:36:26.000Z,-2.92
2023-01-29T04:37:26.000Z,-2.90
2023-01-29T04:38:26.000Z,-2.90
2023-01-29T04:39:26.000Z,-2.86
2023-01-29T04:40:26.000Z,-2.87
2023-01-29T04:41:26.000Z,-2.90
2023-01-29T04:42:26.000Z,-2.86
2023-01-29T04:43:26.000Z,-2.82
2023-01-29T04:44:26.000Z,-2.81
2023-01-29T04:45:26.000Z,-2.85
2023-01-29T04:46:26.000Z,-2.82
2023-01-29T04:47:27.000Z,-2.82
2023-01-29T04:48:27.000Z,-2.81
2023-01-29T04:49:27.000Z,-2.79
2023-01-29T04:50:27.000Z,-2.78
2023-01-29T04:51:27.000Z,-2.78
2023-01-29T04:52:27.000Z,-2.74
2023-01-29T04:53:27.000Z,-2.75
2023-01-29T04:54:27.000Z,-2.81
2023-01-29T04:55:27.000Z,-2.78
2023-01-29T04:56:27.000Z,-2.78
2023-01-29T04:57:27.000Z,-2.74
2023-01-29T04:58:27.000Z,-2.76
2023-01-29T04:59:27.000Z,-2.75
2023-01-29T05:00:27.000Z,-2.75
2023-01-29T05:01:27.000Z,-2.72
2023-01-29T05:02:27.000Z,-2.74
2023-01-29T05:03:27.000Z,-2.75
2023-01-29T05:04:27.000Z,-2.72
2023-01-29T05:05:27.000Z,-2.74
2023-01-29T05:06:27.000Z,-2.69
2023-01-29T05:07:28.000Z,-2.69
2023-01-29T05:08:28.000Z,-2.69
2023-01-29T05:09:28.000Z,-2.71
2023-01-29T05:10:28.000Z,-2.68
2023-01-29T05:11:28.000Z,-2.69
2023-01-29T05:12:28.000Z,-2.68
2023-01-29T05:13:28.000Z,-2.68
2023-01-29T05:14:28.000Z,-2.64
2023-01-29T05:15:28.000Z,-2.69
2023-01-29T05:16:28.000Z,-2.61
2023-01-29T05:17:28.000Z,-2.64
2023-01-29T05:18:28.000Z,-2.66
2023-01-29T05:19:28.000Z,-2.60
2023-01-29T05:20:28.000Z,-2.60
2023-01-29T05:21:28.000Z,-2.60
2023-01-29T05:22:28.000Z,-2.61
2023-01-29T05:23:28.000Z,-2.58
2023-01-29T05:24:28.000Z,-2.60
2023-01-29T05:25:28.000Z,-2.60
2023-01-29T05:26:28.000Z,-2.51
2023-01-29T05:27:28.000Z,-2.56
2023-01-29T05:28:29.000Z,-2.56
2023-01-29T05:29:29.000Z,-2.56
2023-01-29T05:30:29.000Z,-2.53
2023-01-29T05:31:29.000Z,-2.54
2023-01-29T05:32:29.000Z,-2.54
2023-01-29T05:33:29.000Z,-2.51
2023-01-29T05:34:29.000Z,-2.53
2023-01-29T05:35:29.000Z,-2.47
2023-01-29T05:36:29.000Z,-2.45
2023-01-29T05:37:29.000Z,-2.48
2023-01-29T05:38:29.000Z,-2.47
2023-01-29T05:39:29.000Z,-2.51
2023-01-29T05:40:29.000Z,-2.47
2023-01-29T05:41:29.000Z,-2.48
2023-01-29T05:42:29.000Z,-2.45
2023-01-29T05:43:29.000Z,-2.45
2023-01-29T05:44:29.000Z,-2.45
2023-01-29T05:45:29.000Z,-2.45
2023-01-29T05:46:29.000Z,-2.47
2023-01-29T05:47:29.000Z,-2.42
2023-01-29T05:48:29.000Z,-2.42
2023-01-29T05:49:30.000Z,-2.40
2023-01-29T05:50:30.000Z,-2.39
2023-01-29T05:51:30.000Z,-2.40
2023-01-29T05:52:30.000Z,-2.40
2023-01-29T05:53:30.000Z,-2.42
2023-01-29T05:54:30.000Z,-2.39
2023-01-29T05:55:30.000Z,-2.38
2023-01-29T05:56:30.000Z,-2.38
2023-01-29T05:57:30.000Z,-2.36
2023-01-29T05:58:30.000Z,-2.35
2023-01-29T05:59:30.000Z,-2.33
2023-01-29T06:00:30.000Z,-2.36
2023-01-29T06:01:30.000Z,-2.35
2023-01-29T06:02:30.000Z,-2.33
2023-01-29T06:03:30.000Z,-2.36
2023-01-29T06:04:30.000Z,-2.29
2023-01-29T06:05:30.000Z,-2.33
2023-01-29T06:06:30.000Z,-2.29
2023-01-29T06:07:30.000Z,-2.33
2023-01-29T06:08:30.000Z,-2.29
2023-01-29T06:09:30.000Z,-2.29
2023-01-29T06:10:30.000Z,-2.28
2023-01-29T06:11:31.000Z,-2.29
2023-01-29T06:12:31.000Z,-2.26
2023-01-29T06:13:31.000Z,-2.28
2023-01-29T06:14:31.000Z,-2.29
2023-01-29T06:15:31.000Z,-2.26
2023-01-29T06:16:31.000Z,-2.24
2023-01-29T06:17:31.000Z,-2.24
2023-01-29T06:18:31.000Z,-2.24
2023-01-29T06:19:31.000Z,-2.28
2023-01-29T06:20:31.000Z,-2.28
2023-01-29T06:21:31.000Z,-2.28
2023-01-29T06:22:31.000Z,-2.28
2023-01-29T06:23:31.000Z,-2.23
2023-01-29T06:24:31.000Z,-2.24
2023-01-29T06:25:31.000Z,-2.23
2023-01-29T06:26:31.000Z,-2.24
2023-01-29T06:27:31.000Z,-2.24
2023-01-29T06:28:31.000Z,-2.26
2023-01-29T06:29:31.000Z,-2.18
2023-01-29T06:30:31.000Z,-2.24
2023-01-29T06:31:31.000Z,-2.23
2023-01-29T06:32:32.000Z,-2.23
2023-01-29T06:33:32.000Z,-2.21
2023-01-29T06:34:32.000Z,-2.23
2023-01-29T06:35:32.000Z,-2.21
2023-01-29T06:36:32.000Z,-2.21
2023-01-29T06:37:32.000Z,-2.20
2023-01-29T06:38:32.000Z,-2.18
2023-01-29T06:39:32.000Z,-2.17
2023-01-29T06:40:32.000Z,-2.21
2023-01-29T06:41:32.000Z,-2.18
2023-01-29T06:42:32.000Z,-2.17
2023-01-29T06:43:32.000Z,-2.20
2023-01-29T06:44:32.000Z,-2.20
2023-01-29T06:45:32.000Z,-2.16
2023-01-29T06:46:32.000Z,-2.17
2023-01-29T06:47:32.000Z,-2.14
2023-01-29T06:48:32.000Z,-2.18
2023-01-29T06:49:32.000Z,-2.20
2023-01-29T06:50:32.000Z,-2.14
2023-01-29T06:51:32.000Z,-2.16
2023-01-29T06:52:32.000Z,-2.16
2023-01-29T06:53:33.000Z,-2.16
2023-01-29T06:54:33.000Z,-2.14
2023-01-29T06:55:33.000Z,-2.13
2023-01-29T06:56:33.000Z,-2.06
2023-01-29T06:57:33.000Z,-2.13
2023-01-29T06:58:33.000Z,-2.10
2023-01-29T06:59:33.000Z,-2.10
2023-01-29T07:00:33.000Z,-2.11
2023-01-29T07:01:33.000Z,-2.13
2023-01-29T07:02:33.000Z,-2.11
2023-01-29T07:03:33.000Z,-2.11
2023-01-29T07:04:33.000Z,-2.14
2023-01-29T07:05:33.000Z,-2.10
2023-01-29T07:06:33.000Z,-2.08
2023-01-29T07:07:33.000Z,-2.11
2023-01-29T07:08:33.000Z,-2.08
2023-01-29T07:09:33.000Z,-2.05
2023-01-29T07:10:33.000Z,-2.06
2023-01-29T07:11:33.000Z,-2.03
2023-01-29T07:12:33.000Z,-2.02
2023-01-29T07:13:33.000Z,-2.03
2023-01-29T07:14:34.000Z,-1.99
2023-01-29T07:15:34.000Z,-1.98
2023-01-29T07:16:34.000Z,-1.98
2023-01-29T07:17:34.000Z,-1.98
2023-01-29T07:18:34.000Z,-1.95
2023-01-29T07:19:34.000Z,-1.95
2023-01-29T07:20:34.000Z,-1.93
2023-01-29T07:21:34.000Z,-1.93
2023-01-29T07:22:34.000Z,-1.93
2023-01-29T07:23:34.000Z,-1.93
2023-01-29T07:24:34.000Z,-1.93
2023-01-29T07:25:34.000Z,-1.88
2023-01-29T07:26:34.000Z,-1.92
2023-01-29T07:27:34.000Z,-1.87
2023-01-29T07:28:34.000Z,-1.88
2023-01-29T07:29:34.000Z,-1.90
2023-01-29T07:30:34.000Z,-1.88
2023-01-29T07:31:34.000Z,-1.84
2023-01-29T07:32:34.000Z,-1.88
2023-01-29T07:33:34.000Z,-1.85
2023-01-29T07:34:34.000Z,-1.87
2023-01-29T07:35:34.000Z,-1.81
2023-01-29T07:36:34.000Z,-1.82
2023-01-29T07:37:35.000Z,-1.78
2023-01-29T07:38:35.000Z,-1.80
2023-01-29T07:39:35.000Z,-1.82
2023-01-29T07:40:35.000Z,-1.81
2023-01-29T07:41:35.000Z,-1.78
2023-01-29T07:42:35.000Z,-1.78
2023-01-29T07:43:35.000Z,-1.77
2023-01-29T07:44:35.000Z,-1.77
2023-01-29T07:45:35.000Z,-1.75
2023-01-29T07:46:35.000Z,-1.72
2023-01-29T07:47:35.000Z,-1.75
2023-01-29T07:48:35.000Z,-1.70
2023-01-29T07:49:35.000Z,-1.69
2023-01-29T07:50:35.000Z,-1.72
2023-01-29T07:51:35.000Z,-1.75
2023-01-29T07:52:35.000Z,-1.74
2023-01-29T08:58:10.000Z,-1.45
2023-01-29T08:58:10.000Z,-1.45
2023-01-29T08:59:10.000Z,-1.45
2023-01-29T09:00:10.000Z,-1.39
2023-01-29T09:01:10.000Z,-1.36
2023-01-29T09:02:10.000Z,-1.30
2023-01-29T09:03:10.000Z,-1.30
2023-01-29T09:04:10.000Z,-1.27
2023-01-29T09:05:10.000Z,-1.25
2023-01-29T09:06:10.000Z,-1.25
2023-01-29T09:07:10.000Z,-1.28
2023-01-29T09:08:10.000Z,-1.28
2023-01-29T09:09:10.000Z,-1.27
2023-01-29T09:10:10.000Z,-1.28
2023-01-29T09:11:10.000Z,-1.27
2023-01-29T09:12:10.000Z,-1.27
2023-01-29T09:13:10.000Z,-1.21
2023-01-29T09:14:10.000Z,-1.23
2023-01-29T09:15:10.000Z,-1.21
2023-01-29T09:16:10.000Z,-1.23
2023-01-29T09:17:10.000Z,-1.20
2023-01-29T09:18:10.000Z,-1.18
2023-01-29T09:19:10.000Z,-1.21
2023-01-29T09:20:10.000Z,-1.20
2023-01-29T09:21:10.000Z,-1.17
2023-01-29T09:22:10.000Z,-1.17
2023-01-29T09:23:10.000Z,-1.10
2023-01-29T09:24:10.000Z,-1.10
2023-01-29T09:25:10.000Z,-1.05
2023-01-29T09:26:10.000Z,-1.05
2023-01-29T09:27:10.000Z,-1.02
2023-01-29T09:27:10.000Z,-1.02
2023-01-29T09:28:10.000Z,-0.95
2023-01-29T09:28:10.000Z,-0.95
2023-01-29T09:29:10.000Z,-0.92
2023-01-29T09:29:10.000Z,-0.92
2023-01-29T09:30:10.000Z,-0.94
2023-01-29T09:30:10.000Z,-0.94
2023-01-29T09:31:10.000Z,-0.86
2023-01-29T09:31:10.000Z,-0.86
2023-01-29T09:32:10.000Z,-0.84
2023-01-29T09:33:10.000Z,-0.86
2023-01-29T09:34:10.000Z,-0.89
2023-01-29T09:35:10.000Z,-0.84
2023-01-29T09:36:10.000Z,-0.87
2023-01-29T09:37:10.000Z,-0.80
2023-01-29T09:38:10.000Z,-0.78
2023-01-29T09:39:10.000Z,-0.75
2023-01-29T09:40:10.000Z,-0.70
2023-01-29T09:41:10.000Z,-0.73
2023-01-29T09:42:10.000Z,-0.68
2023-01-29T09:43:10.000Z,-0.66
2023-01-29T09:44:10.000Z,-0.65
2023-01-29T09:45:10.000Z,-0.63
2023-01-29T09:46:10.000Z,-0.62
2023-01-29T09:47:10.000Z,-0.60
2023-01-29T09:48:10.000Z,-0.55
2023-01-29T09:49:10.000Z,-0.54
2023-01-29T09:50:10.000Z,-0.51
2023-01-29T09:51:10.000Z,-0.54
2023-01-29T09:52:10.000Z,-0.55
2023-01-29T09:53:10.000Z,-0.54
2023-01-29T09:54:10.000Z,-0.54
2023-01-29T09:55:10.000Z,-0.48
2023-01-29T09:56:10.000Z,-0.48
2023-01-29T09:57:10.000Z,-0.45
2023-01-29T09:58:10.000Z,-0.45
2023-01-29T09:59:10.000Z,-0.50
2023-01-29T10:00:10.000Z,-0.50
2023-01-29T10:01:10.000Z,-0.48
2023-01-29T10:02:10.000Z,-0.50
2023-01-29T10:03:10.000Z,-0.52
2023-01-29T10:04:10.000Z,-0.52
2023-01-29T10:05:10.000Z,-0.54
2023-01-29T10:06:10.000Z,-0.54
2023-01-29T10:07:10.000Z,-0.50
2023-01-29T10:08:10.000Z,-0.51
2023-01-29T10:09:10.000Z,-0.45
2023-01-29T10:10:10.000Z,-0.34
2023-01-29T10:11:10.000Z,-0.34
2023-01-29T10:12:10.000Z,-0.29
2023-01-29T10:13:10.000Z,-0.29
2023-01-29T10:14:10.000Z,-0.27
2023-01-29T10:15:10.000Z,-0.29
2023-01-29T10:16:10.000Z,-0.29
2023-01-29T10:17:10.000Z,-0.23
2023-01-29T10:18:10.000Z,-0.27
2023-01-29T10:19:10.000Z,-0.29
2023-01-29T10:20:10.000Z,-0.26
2023-01-29T10:21:10.000Z,-0.16
2023-01-29T10:22:10.000Z,-0.15
2023-01-29T10:23:10.000Z,-0.13
2023-01-29T10:24:10.000Z,-0.18
2023-01-29T10:25:10.000Z,-0.16
2023-01-29T10:26:10.000Z,-0.11
2023-01-29T10:27:10.000Z,-0.13
2023-01-29T10:28:10.000Z,-0.16
2023-01-29T10:29:10.000Z,-0.15
2023-01-29T10:30:10.000Z,-0.22
2023-01-29T10:31:10.000Z,-0.22
2023-01-29T10:32:10.000Z,-0.16
2023-01-29T10:33:10.000Z,-0.16
2023-01-29T10:34:10.000Z,-0.22
2023-01-29T10:35:10.000Z,-0.19
2023-01-29T10:36:10.000Z,-0.16
2023-01-29T10:37:10.000Z,-0.09
2023-01-29T10:38:10.000Z,-0.06
2023-01-29T10:39:10.000Z,-0.05
2023-01-29T10:40:10.000Z,-0.06
2023-01-29T10:41:10.000Z,-0.05
2023-01-29T10:42:10.000Z,-0.01
2023-01-29T10:43:10.000Z,-0.06
2023-01-29T10:44:10.000Z,-0.01
2023-01-29T10:45:10.000Z,0.00
2023-01-29T10:46:10.000Z,0.05
2023-01-29T10:47:10.000Z,0.03
2023-01-29T10:48:10.000Z,0.06
2023-01-29T10:49:10.000Z,0.03
2023-01-29T10:50:10.000Z,-0.01
2023-01-29T10:51:10.000Z,-0.04
2023-01-29T10:52:10.000Z,-0.08
2023-01-29T10:53:10.000Z,-0.05
2023-01-29T10:54:10.000Z,-0.08
2023-01-29T10:55:09.000Z,-0.01
2023-01-29T10:56:09.000Z,-0.01
2023-01-29T10:57:09.000Z,0.02
2023-01-29T10:58:09.000Z,0.02
2023-01-29T10:59:09.000Z,0.07
2023-01-29T11:00:09.000Z,0.07
2023-01-29T11:01:09.000Z,0.12
2023-01-29T11:02:09.000Z,0.20
2023-01-29T11:03:09.000Z,0.21
2023-01-29T11:04:09.000Z,0.20
2023-01-29T11:05:09.000Z,0.16
2023-01-29T11:06:09.000Z,0.13
2023-01-29T11:07:09.000Z,0.10
2023-01-29T11:08:09.000Z,0.13
2023-01-29T11:09:09.000Z,0.13
2023-01-29T11:10:09.000Z,0.16
2023-01-29T11:11:09.000Z,0.20
2023-01-29T11:12:09.000Z,0.18
2023-01-29T11:13:09.000Z,0.13
2023-01-29T11:14:09.000Z,0.16
2023-01-29T11:15:09.000Z,0.13
2023-01-29T11:16:09.000Z,0.15
2023-01-29T11:17:09.000Z,0.21
2023-01-29T11:18:09.000Z,0.23
2023-01-29T11:19:09.000Z,0.21
2023-01-29T11:20:09.000Z,0.21
2023-01-29T11:21:09.000Z,0.23
2023-01-29T11:22:09.000Z,0.21
2023-01-29T11:23:09.000Z,0.28
2023-01-29T11:24:09.000Z,0.28
2023-01-29T11:25:09.000Z,0.31
2023-01-29T11:26:09.000Z,0.36
2023-01-29T11:27:09.000Z,0.28
2023-01-29T11:28:09.000Z,0.30
2023-01-29T11:29:09.000Z,0.30
2023-01-29T11:30:09.000Z,0.36
2023-01-29T11:31:09.000Z,0.36
2023-01-29T11:32:09.000Z,0.39
2023-01-29T11:33:08.000Z,0.39
2023-01-29T11:34:08.000Z,0.39
2023-01-29T11:35:08.000Z,0.38
2023-01-29T11:36:08.000Z,0.38
2023-01-29T11:37:08.000Z,0.42
2023-01-29T11:38:08.000Z,0.43
2023-01-29T11:39:08.000Z,0.49
2023-01-29T11:40:08.000Z,0.53
2023-01-29T11:41:08.000Z,0.53
2023-01-29T11:42:16.000Z,0.52
2023-01-29T11:43:08.000Z,0.58
2023-01-29T11:44:08.000Z,0.52
2023-01-29T11:45:08.000Z,0.60
2023-01-29T11:46:08.000Z,0.53
2023-01-29T11:47:08.000Z,0.60
2023-01-29T11:48:08.000Z,0.58
2023-01-29T11:49:08.000Z,0.60
2023-01-29T11:50:08.000Z,0.51
2023-01-29T11:51:08.000Z,0.48
2023-01-29T11:52:08.000Z,0.51
2023-01-29T11:53:08.000Z,0.52
2023-01-29T11:54:08.000Z,0.58
2023-01-29T11:55:08.000Z,0.60
2023-01-29T11:56:08.000Z,0.61
2023-01-29T11:57:08.000Z,0.52
2023-01-29T11:58:08.000Z,0.53
2023-01-29T11:59:08.000Z,0.61
2023-01-29T12:00:08.000Z,0.65
2023-01-29T12:01:08.000Z,0.60
2023-01-29T12:02:08.000Z,0.58
2023-01-29T12:03:08.000Z,0.60
2023-01-29T12:04:08.000Z,0.64
2023-01-29T12:05:08.000Z,0.67
2023-01-29T12:06:08.000Z,0.68
2023-01-29T12:07:08.000Z,0.71
2023-01-29T12:08:07.000Z,0.71
2023-01-29T12:09:07.000Z,0.71
2023-01-29T12:10:07.000Z,0.76
2023-01-29T12:11:07.000Z,0.78
2023-01-29T12:12:07.000Z,0.76
2023-01-29T12:13:07.000Z,0.76
2023-01-29T12:14:07.000Z,0.79
2023-01-29T12:15:07.000Z,0.78
2023-01-29T12:16:07.000Z,0.83
2023-01-29T12:17:07.000Z,0.83
2023-01-29T12:18:07.000Z,0.86
2023-01-29T12:19:07.000Z,0.88
2023-01-29T12:20:07.000Z,0.85
2023-01-29T12:21:07.000Z,0.83
2023-01-29T12:22:07.000Z,0.85
2023-01-29T12:23:07.000Z,0.90
2023-01-29T12:24:07.000Z,0.90
2023-01-29T12:25:07.000Z,0.94
2023-01-29T12:26:07.000Z,0.88
2023-01-29T12:27:07.000Z,0.85
2023-01-29T12:28:07.000Z,0.82
2023-01-29T12:29:07.000Z,0.82
2023-01-29T12:30:07.000Z,0.82
2023-01-29T12:31:07.000Z,0.79
2023-01-29T12:32:07.000Z,0.83
2023-01-29T12:33:07.000Z,0.86
2023-01-29T12:34:07.000Z,0.88
2023-01-29T12:35:07.000Z,0.90
2023-01-29T12:36:07.000Z,0.96
2023-01-29T12:37:07.000Z,1.00
2023-01-29T12:38:07.000Z,1.04
2023-01-29T12:39:06.000Z,1.06
2023-01-29T12:40:06.000Z,1.12
2023-01-29T12:41:06.000Z,1.12
2023-01-29T12:48:24.000Z,1.18
2023-01-29T12:48:24.000Z,1.18
2023-01-29T12:49:24.000Z,1.24
2023-01-29T12:50:24.000Z,1.16
2023-01-29T12:51:24.000Z,1.16
2023-01-29T12:52:24.000Z,1.15
2023-01-29T12:53:24.000Z,1.12
2023-01-29T12:54:24.000Z,1.16
2023-01-29T12:55:24.000Z,1.22
2023-01-29T12:56:24.000Z,1.26
2023-01-29T12:57:24.000Z,1.25
2023-01-29T12:58:24.000Z,1.25
2023-01-29T12:59:24.000Z,1.28
2023-01-29T13:00:24.000Z,1.28
2023-01-29T13:01:24.000Z,1.22
2023-01-29T13:02:24.000Z,1.22
2023-01-29T13:03:24.000Z,1.21
2023-01-29T13:04:24.000Z,1.21
2023-01-29T13:05:24.000Z,1.22
2023-01-29T13:06:24.000Z,1.22
2023-01-29T13:07:24.000Z,1.22
2023-01-29T13:08:24.000Z,1.19
2023-01-29T13:09:24.000Z,1.21
2023-01-29T13:10:24.000Z,1.22
2023-01-29T13:11:24.000Z,1.26
2023-01-29T13:12:24.000Z,1.25
2023-01-29T13:13:24.000Z,1.32
2023-01-29T13:14:24.000Z,1.26
2023-01-29T13:15:24.000Z,1.24
2023-01-29T13:16:24.000Z,1.26
2023-01-29T13:17:24.000Z,1.26
2023-01-29T13:18:24.000Z,1.32
2023-01-29T13:19:24.000Z,1.32
2023-01-29T13:20:23.000Z,1.28
2023-01-29T13:21:23.000Z,1.25
2023-01-29T13:22:23.000Z,1.34
2023-01-29T13:23:23.000Z,1.39
2023-01-29T13:24:23.000Z,1.36
2023-01-29T13:25:23.000Z,1.33
2023-01-29T13:26:23.000Z,1.33
2023-01-29T13:27:23.000Z,1.26
2023-01-29T13:28:23.000Z,1.26
2023-01-29T13:29:23.000Z,1.26
2023-01-29T13:30:23.000Z,1.29
2023-01-29T13:31:23.000Z,1.32
2023-01-29T13:32:23.000Z,1.37
2023-01-29T13:33:23.000Z,1.33
2023-01-29T13:34:23.000Z,1.29
2023-01-29T13:35:23.000Z,1.32
2023-01-29T13:36:23.000Z,1.37
2023-01-29T13:37:23.000Z,1.40
2023-01-29T13:38:23.000Z,1.42
2023-01-29T13:39:23.000Z,1.39
2023-01-29T13:40:23.000Z,1.40
2023-01-29T13:41:23.000Z,1.42
2023-01-29T13:42:23.000Z,1.43
2023-01-29T13:43:23.000Z,1.34
2023-01-29T13:44:23.000Z,1.33
2023-01-29T13:45:23.000Z,1.32
2023-01-29T13:46:23.000Z,1.32
2023-01-29T13:47:23.000Z,1.34
2023-01-29T13:48:23.000Z,1.42
2023-01-29T13:49:23.000Z,1.34
2023-01-29T13:50:23.000Z,1.34
2023-01-29T13:51:23.000Z,1.33
2023-01-29T13:52:23.000Z,1.33
2023-01-29T13:53:23.000Z,1.34
2023-01-29T13:54:23.000Z,1.34
2023-01-29T13:55:23.000Z,1.32
2023-01-29T13:56:23.000Z,1.36
2023-01-29T13:57:23.000Z,1.33
2023-01-29T13:58:23.000Z,1.26
2023-01-29T13:59:23.000Z,1.22
2023-01-29T14:00:23.000Z,1.18
2023-01-29T14:01:23.000Z,1.22
2023-01-29T14:02:23.000Z,1.22